sensor_id;sensor_type;location;lat;lon;timestamp;P1;durP1;ratioP1;P2;durP2;ratioP2
37787;SDS011;23627;53.302;-6.362;2023-04-25T00:01:30;5.72;;;2.95;;
37787;SDS011;23627;53.302;-6.362;2023-04-25T00:03:57;4.72;;;2.85;;
37787;SDS011;23627;53.302;-6.362;2023-04-25T00:06:22;5.38;;;3.25;;
37787;SDS011;23627;53.302;-6.362;2023-04-25T00:08:51;6.50;;;3.10;;
37787;SDS011;23627;53.302;-6.362;2023-04-25T00:11:18;7.30;;;3.65;;
37787;SDS011;23627;53.302;-6.362;2023-04-25T00:13:44;6.38;;;3.40;;
37787;SDS011;23627;53.302;-6.362;2023-04-25T00:16:17;6.32;;;3.20;;
37787;SDS011;23627;53.302;-6.362;2023-04-25T00:18:43;6.00;;;2.97;;
37787;SDS011;23627;53.302;-6.362;2023-04-25T00:21:11;5.32;;;2.63;;
37787;SDS011;23627;53.302;-6.362;2023-04-25T00:23:37;3.60;;;2.35;;
37787;SDS011;23627;53.302;-6.362;2023-04-25T00:26:03;3.70;;;2.22;;
37787;SDS011;23627;53.302;-6.362;2023-04-25T00:28:29;4.45;;;2.00;;
37787;SDS011;23627;53.302;-6.362;2023-04-25T00:30:55;2.92;;;1.85;;
37787;SDS011;23627;53.302;-6.362;2023-04-25T00:33:21;3.67;;;1.73;;
37787;SDS011;23627;53.302;-6.362;2023-04-25T00:35:47;3.45;;;1.70;;
37787;SDS011;23627;53.302;-6.362;2023-04-25T00:38:12;3.00;;;1.55;;
37787;SDS011;23627;53.302;-6.362;2023-04-25T00:40:38;3.08;;;1.70;;
37787;SDS011;23627;53.302;-6.362;2023-04-25T00:43:04;2.00;;;1.45;;
37787;SDS011;23627;53.302;-6.362;2023-04-25T00:45:30;2.45;;;1.40;;
37787;SDS011;23627;53.302;-6.362;2023-04-25T00:47:56;2.65;;;1.30;;
37787;SDS011;23627;53.302;-6.362;2023-04-25T00:50:22;2.75;;;1.30;;
37787;SDS011;23627;53.302;-6.362;2023-04-25T00:52:48;2.53;;;1.30;;
37787;SDS011;23627;53.302;-6.362;2023-04-25T00:55:14;3.35;;;1.73;;
37787;SDS011;23627;53.302;-6.362;2023-04-25T00:57:40;2.88;;;1.30;;
37787;SDS011;23627;53.302;-6.362;2023-04-25T01:00:07;2.40;;;1.40;;
37787;SDS011;23627;53.302;-6.362;2023-04-25T01:02:34;2.63;;;1.58;;
37787;SDS011;23627;53.302;-6.362;2023-04-25T01:05:01;2.65;;;1.52;;
37787;SDS011;23627;53.302;-6.362;2023-04-25T01:07:27;2.13;;;1.20;;
37787;SDS011;23627;53.302;-6.362;2023-04-25T01:09:54;2.88;;;1.40;;
37787;SDS011;23627;53.302;-6.362;2023-04-25T01:12:20;2.58;;;1.30;;
37787;SDS011;23627;53.302;-6.362;2023-04-25T01:14:46;2.17;;;1.30;;
37787;SDS011;23627;53.302;-6.362;2023-04-25T01:17:12;3.40;;;1.60;;
37787;SDS011;23627;53.302;-6.362;2023-04-25T01:19:38;2.22;;;1.30;;
37787;SDS011;23627;53.302;-6.362;2023-04-25T01:22:04;3.15;;;1.40;;
37787;SDS011;23627;53.302;-6.362;2023-04-25T01:24:33;2.25;;;1.10;;
37787;SDS011;23627;53.302;-6.362;2023-04-25T01:27:00;2.13;;;1.40;;
37787;SDS011;23627;53.302;-6.362;2023-04-25T01:29:27;2.55;;;1.30;;
37787;SDS011;23627;53.302;-6.362;2023-04-25T01:31:53;2.17;;;1.40;;
37787;SDS011;23627;53.302;-6.362;2023-04-25T01:34:19;2.58;;;1.20;;
37787;SDS011;23627;53.302;-6.362;2023-04-25T01:36:49;3.65;;;1.30;;
37787;SDS011;23627;53.302;-6.362;2023-04-25T01:39:16;1.67;;;0.95;;
37787;SDS011;23627;53.302;-6.362;2023-04-25T01:41:42;1.55;;;1.20;;
37787;SDS011;23627;53.302;-6.362;2023-04-25T01:44:08;2.58;;;1.27;;
37787;SDS011;23627;53.302;-6.362;2023-04-25T01:46:34;1.70;;;1.10;;
37787;SDS011;23627;53.302;-6.362;2023-04-25T01:49:00;1.98;;;1.20;;
37787;SDS011;23627;53.302;-6.362;2023-04-25T01:51:26;1.58;;;1.20;;
37787;SDS011;23627;53.302;-6.362;2023-04-25T01:53:52;2.28;;;1.30;;
37787;SDS011;23627;53.302;-6.362;2023-04-25T01:56:19;3.25;;;1.30;;
37787;SDS011;23627;53.302;-6.362;2023-04-25T01:58:45;2.25;;;1.20;;
37787;SDS011;23627;53.302;-6.362;2023-04-25T02:01:11;3.08;;;1.17;;
37787;SDS011;23627;53.302;-6.362;2023-04-25T02:03:37;2.40;;;1.10;;
37787;SDS011;23627;53.302;-6.362;2023-04-25T02:06:03;2.10;;;1.20;;
37787;SDS011;23627;53.302;-6.362;2023-04-25T02:08:29;2.10;;;1.20;;
37787;SDS011;23627;53.302;-6.362;2023-04-25T02:10:55;3.35;;;1.20;;
37787;SDS011;23627;53.302;-6.362;2023-04-25T02:13:21;2.55;;;1.35;;
37787;SDS011;23627;53.302;-6.362;2023-04-25T02:15:46;2.65;;;1.20;;
37787;SDS011;23627;53.302;-6.362;2023-04-25T02:18:12;2.10;;;1.17;;
37787;SDS011;23627;53.302;-6.362;2023-04-25T02:20:40;3.00;;;1.30;;
37787;SDS011;23627;53.302;-6.362;2023-04-25T02:23:07;2.28;;;1.27;;
37787;SDS011;23627;53.302;-6.362;2023-04-25T02:25:32;2.70;;;1.17;;
37787;SDS011;23627;53.302;-6.362;2023-04-25T02:27:58;1.60;;;1.00;;
37787;SDS011;23627;53.302;-6.362;2023-04-25T02:30:24;2.22;;;1.38;;
37787;SDS011;23627;53.302;-6.362;2023-04-25T02:32:50;3.10;;;1.48;;
37787;SDS011;23627;53.302;-6.362;2023-04-25T02:35:15;1.95;;;1.10;;
37787;SDS011;23627;53.302;-6.362;2023-04-25T02:37:41;2.03;;;1.17;;
37787;SDS011;23627;53.302;-6.362;2023-04-25T02:40:07;2.08;;;1.40;;
37787;SDS011;23627;53.302;-6.362;2023-04-25T02:42:33;3.05;;;1.40;;
37787;SDS011;23627;53.302;-6.362;2023-04-25T02:44:59;3.95;;;1.20;;
37787;SDS011;23627;53.302;-6.362;2023-04-25T02:47:25;2.15;;;1.70;;
37787;SDS011;23627;53.302;-6.362;2023-04-25T02:49:51;2.88;;;1.30;;
37787;SDS011;23627;53.302;-6.362;2023-04-25T02:52:17;2.30;;;1.17;;
37787;SDS011;23627;53.302;-6.362;2023-04-25T02:54:43;1.98;;;1.30;;
37787;SDS011;23627;53.302;-6.362;2023-04-25T02:57:08;3.25;;;1.45;;
37787;SDS011;23627;53.302;-6.362;2023-04-25T02:59:34;3.95;;;1.27;;
37787;SDS011;23627;53.302;-6.362;2023-04-25T03:02:00;2.15;;;1.30;;
37787;SDS011;23627;53.302;-6.362;2023-04-25T03:04:26;2.08;;;1.30;;
37787;SDS011;23627;53.302;-6.362;2023-04-25T03:06:52;2.88;;;1.35;;
37787;SDS011;23627;53.302;-6.362;2023-04-25T03:09:18;2.33;;;1.20;;
37787;SDS011;23627;53.302;-6.362;2023-04-25T03:11:45;2.00;;;1.40;;
37787;SDS011;23627;53.302;-6.362;2023-04-25T03:14:11;2.30;;;1.20;;
37787;SDS011;23627;53.302;-6.362;2023-04-25T03:16:37;2.15;;;1.20;;
37787;SDS011;23627;53.302;-6.362;2023-04-25T03:19:03;3.00;;;1.00;;
37787;SDS011;23627;53.302;-6.362;2023-04-25T03:21:29;2.10;;;1.33;;
37787;SDS011;23627;53.302;-6.362;2023-04-25T03:23:57;2.10;;;1.20;;
37787;SDS011;23627;53.302;-6.362;2023-04-25T03:26:23;1.98;;;1.30;;
37787;SDS011;23627;53.302;-6.362;2023-04-25T03:28:49;2.22;;;1.00;;
37787;SDS011;23627;53.302;-6.362;2023-04-25T03:31:15;2.47;;;1.10;;
37787;SDS011;23627;53.302;-6.362;2023-04-25T03:33:41;2.08;;;1.35;;
37787;SDS011;23627;53.302;-6.362;2023-04-25T03:36:06;1.90;;;1.17;;
37787;SDS011;23627;53.302;-6.362;2023-04-25T03:38:33;2.25;;;1.23;;
37787;SDS011;23627;53.302;-6.362;2023-04-25T03:40:58;2.60;;;1.30;;
37787;SDS011;23627;53.302;-6.362;2023-04-25T03:43:24;1.92;;;1.27;;
37787;SDS011;23627;53.302;-6.362;2023-04-25T03:45:50;2.75;;;1.20;;
37787;SDS011;23627;53.302;-6.362;2023-04-25T03:48:16;4.65;;;1.45;;
37787;SDS011;23627;53.302;-6.362;2023-04-25T03:50:42;2.58;;;1.08;;
37787;SDS011;23627;53.302;-6.362;2023-04-25T03:53:07;1.70;;;1.20;;
37787;SDS011;23627;53.302;-6.362;2023-04-25T03:55:33;2.10;;;1.15;;
37787;SDS011;23627;53.302;-6.362;2023-04-25T03:57:59;2.08;;;1.30;;
37787;SDS011;23627;53.302;-6.362;2023-04-25T04:00:25;3.15;;;0.93;;
37787;SDS011;23627;53.302;-6.362;2023-04-25T04:02:51;2.65;;;1.20;;
37787;SDS011;23627;53.302;-6.362;2023-04-25T04:05:16;1.63;;;1.20;;
37787;SDS011;23627;53.302;-6.362;2023-04-25T04:07:42;1.73;;;1.00;;
37787;SDS011;23627;53.302;-6.362;2023-04-25T04:10:11;1.85;;;1.27;;
37787;SDS011;23627;53.302;-6.362;2023-04-25T04:12:37;1.55;;;1.15;;
37787;SDS011;23627;53.302;-6.362;2023-04-25T04:15:06;1.70;;;1.20;;
37787;SDS011;23627;53.302;-6.362;2023-04-25T04:17:32;1.83;;;1.20;;
37787;SDS011;23627;53.302;-6.362;2023-04-25T04:19:59;1.33;;;0.90;;
37787;SDS011;23627;53.302;-6.362;2023-04-25T04:22:25;2.53;;;1.10;;
37787;SDS011;23627;53.302;-6.362;2023-04-25T04:24:50;2.20;;;1.25;;
37787;SDS011;23627;53.302;-6.362;2023-04-25T04:27:19;2.17;;;1.20;;
37787;SDS011;23627;53.302;-6.362;2023-04-25T04:29:46;1.40;;;0.90;;
37787;SDS011;23627;53.302;-6.362;2023-04-25T04:32:12;2.35;;;1.00;;
37787;SDS011;23627;53.302;-6.362;2023-04-25T04:34:39;4.47;;;1.25;;
37787;SDS011;23627;53.302;-6.362;2023-04-25T04:37:06;1.73;;;1.15;;
37787;SDS011;23627;53.302;-6.362;2023-04-25T04:39:32;1.85;;;1.10;;
37787;SDS011;23627;53.302;-6.362;2023-04-25T04:41:58;2.17;;;1.00;;
37787;SDS011;23627;53.302;-6.362;2023-04-25T04:44:26;2.67;;;1.27;;
37787;SDS011;23627;53.302;-6.362;2023-04-25T04:50:15;1.58;;;0.98;;
37787;SDS011;23627;53.302;-6.362;2023-04-25T04:52:41;3.28;;;1.10;;
37787;SDS011;23627;53.302;-6.362;2023-04-25T04:55:07;1.77;;;1.00;;
37787;SDS011;23627;53.302;-6.362;2023-04-25T04:57:34;1.80;;;1.02;;
37787;SDS011;23627;53.302;-6.362;2023-04-25T05:00:00;2.97;;;1.00;;
37787;SDS011;23627;53.302;-6.362;2023-04-25T05:02:26;2.42;;;1.00;;
37787;SDS011;23627;53.302;-6.362;2023-04-25T05:04:52;1.33;;;0.85;;
37787;SDS011;23627;53.302;-6.362;2023-04-25T05:07:18;2.97;;;1.10;;
37787;SDS011;23627;53.302;-6.362;2023-04-25T05:09:44;2.00;;;0.90;;
37787;SDS011;23627;53.302;-6.362;2023-04-25T05:12:10;1.92;;;1.00;;
37787;SDS011;23627;53.302;-6.362;2023-04-25T05:14:36;1.17;;;0.80;;
37787;SDS011;23627;53.302;-6.362;2023-04-25T05:17:01;1.60;;;0.80;;
37787;SDS011;23627;53.302;-6.362;2023-04-25T05:19:30;1.95;;;1.00;;
37787;SDS011;23627;53.302;-6.362;2023-04-25T05:21:57;1.30;;;0.80;;
37787;SDS011;23627;53.302;-6.362;2023-04-25T05:24:23;2.17;;;0.90;;
37787;SDS011;23627;53.302;-6.362;2023-04-25T05:26:49;1.98;;;0.98;;
37787;SDS011;23627;53.302;-6.362;2023-04-25T05:29:14;1.85;;;0.90;;
37787;SDS011;23627;53.302;-6.362;2023-04-25T05:31:40;1.00;;;0.80;;
37787;SDS011;23627;53.302;-6.362;2023-04-25T05:34:06;1.50;;;0.80;;
37787;SDS011;23627;53.302;-6.362;2023-04-25T05:36:31;1.10;;;0.70;;
37787;SDS011;23627;53.302;-6.362;2023-04-25T05:38:57;2.10;;;0.68;;
37787;SDS011;23627;53.302;-6.362;2023-04-25T05:41:23;3.08;;;0.93;;
37787;SDS011;23627;53.302;-6.362;2023-04-25T05:43:49;1.45;;;0.80;;
37787;SDS011;23627;53.302;-6.362;2023-04-25T05:46:15;1.70;;;0.70;;
37787;SDS011;23627;53.302;-6.362;2023-04-25T05:48:43;1.25;;;0.70;;
37787;SDS011;23627;53.302;-6.362;2023-04-25T05:51:10;1.60;;;0.93;;
37787;SDS011;23627;53.302;-6.362;2023-04-25T05:53:36;1.73;;;1.05;;
37787;SDS011;23627;53.302;-6.362;2023-04-25T05:56:01;1.88;;;1.08;;
37787;SDS011;23627;53.302;-6.362;2023-04-25T05:58:27;1.45;;;0.70;;
37787;SDS011;23627;53.302;-6.362;2023-04-25T06:00:53;2.53;;;0.80;;
37787;SDS011;23627;53.302;-6.362;2023-04-25T06:03:20;1.63;;;0.80;;
37787;SDS011;23627;53.302;-6.362;2023-04-25T06:05:46;1.48;;;0.70;;
37787;SDS011;23627;53.302;-6.362;2023-04-25T06:08:11;1.35;;;0.70;;
37787;SDS011;23627;53.302;-6.362;2023-04-25T06:10:37;1.27;;;0.88;;
37787;SDS011;23627;53.302;-6.362;2023-04-25T06:13:04;2.45;;;1.00;;
37787;SDS011;23627;53.302;-6.362;2023-04-25T06:15:30;1.33;;;0.68;;
37787;SDS011;23627;53.302;-6.362;2023-04-25T06:17:57;1.90;;;1.02;;
37787;SDS011;23627;53.302;-6.362;2023-04-25T06:20:23;1.30;;;0.68;;
37787;SDS011;23627;53.302;-6.362;2023-04-25T06:22:49;2.65;;;1.00;;
37787;SDS011;23627;53.302;-6.362;2023-04-25T06:25:16;1.10;;;0.80;;
37787;SDS011;23627;53.302;-6.362;2023-04-25T06:27:42;2.15;;;1.17;;
37787;SDS011;23627;53.302;-6.362;2023-04-25T06:30:08;3.83;;;1.10;;
37787;SDS011;23627;53.302;-6.362;2023-04-25T06:32:34;1.70;;;0.90;;
37787;SDS011;23627;53.302;-6.362;2023-04-25T06:35:00;1.45;;;0.88;;
37787;SDS011;23627;53.302;-6.362;2023-04-25T06:37:26;3.17;;;1.20;;
37787;SDS011;23627;53.302;-6.362;2023-04-25T06:39:52;2.10;;;1.20;;
37787;SDS011;23627;53.302;-6.362;2023-04-25T06:42:17;1.52;;;1.00;;
37787;SDS011;23627;53.302;-6.362;2023-04-25T06:44:43;1.55;;;1.10;;
37787;SDS011;23627;53.302;-6.362;2023-04-25T06:47:09;2.05;;;0.80;;
37787;SDS011;23627;53.302;-6.362;2023-04-25T06:49:35;2.15;;;0.90;;
37787;SDS011;23627;53.302;-6.362;2023-04-25T06:52:00;2.30;;;1.08;;
37787;SDS011;23627;53.302;-6.362;2023-04-25T06:54:26;1.73;;;0.95;;
37787;SDS011;23627;53.302;-6.362;2023-04-25T06:56:54;1.98;;;1.00;;
37787;SDS011;23627;53.302;-6.362;2023-04-25T06:59:20;2.75;;;1.05;;
37787;SDS011;23627;53.302;-6.362;2023-04-25T07:01:46;2.60;;;0.90;;
37787;SDS011;23627;53.302;-6.362;2023-04-25T07:04:12;2.17;;;1.13;;
37787;SDS011;23627;53.302;-6.362;2023-04-25T07:06:38;1.90;;;1.30;;
37787;SDS011;23627;53.302;-6.362;2023-04-25T07:09:07;1.38;;;0.90;;
37787;SDS011;23627;53.302;-6.362;2023-04-25T07:11:35;3.03;;;1.27;;
37787;SDS011;23627;53.302;-6.362;2023-04-25T07:14:01;2.50;;;1.00;;
37787;SDS011;23627;53.302;-6.362;2023-04-25T07:16:27;1.92;;;1.10;;
37787;SDS011;23627;53.302;-6.362;2023-04-25T07:18:53;2.25;;;1.10;;
37787;SDS011;23627;53.302;-6.362;2023-04-25T07:21:19;2.38;;;1.40;;
37787;SDS011;23627;53.302;-6.362;2023-04-25T07:23:44;2.78;;;1.00;;
37787;SDS011;23627;53.302;-6.362;2023-04-25T07:26:10;1.90;;;1.10;;
37787;SDS011;23627;53.302;-6.362;2023-04-25T07:28:36;2.00;;;1.08;;
37787;SDS011;23627;53.302;-6.362;2023-04-25T07:31:02;1.90;;;1.27;;
37787;SDS011;23627;53.302;-6.362;2023-04-25T07:33:28;2.03;;;1.30;;
37787;SDS011;23627;53.302;-6.362;2023-04-25T07:35:54;1.52;;;0.95;;
37787;SDS011;23627;53.302;-6.362;2023-04-25T07:38:21;3.03;;;1.27;;
37787;SDS011;23627;53.302;-6.362;2023-04-25T07:40:49;2.15;;;1.23;;
37787;SDS011;23627;53.302;-6.362;2023-04-25T07:43:15;1.48;;;1.10;;
37787;SDS011;23627;53.302;-6.362;2023-04-25T07:45:45;1.75;;;1.10;;
37787;SDS011;23627;53.302;-6.362;2023-04-25T07:48:11;1.60;;;1.10;;
37787;SDS011;23627;53.302;-6.362;2023-04-25T07:50:41;2.28;;;1.40;;
37787;SDS011;23627;53.302;-6.362;2023-04-25T07:53:07;2.08;;;1.10;;
37787;SDS011;23627;53.302;-6.362;2023-04-25T07:55:33;2.67;;;1.00;;
37787;SDS011;23627;53.302;-6.362;2023-04-25T07:57:59;1.77;;;1.20;;
37787;SDS011;23627;53.302;-6.362;2023-04-25T08:00:25;4.15;;;1.38;;
37787;SDS011;23627;53.302;-6.362;2023-04-25T08:02:51;2.15;;;1.13;;
37787;SDS011;23627;53.302;-6.362;2023-04-25T08:05:16;2.13;;;1.20;;
37787;SDS011;23627;53.302;-6.362;2023-04-25T08:07:42;2.25;;;1.10;;
37787;SDS011;23627;53.302;-6.362;2023-04-25T08:10:08;1.60;;;1.02;;
37787;SDS011;23627;53.302;-6.362;2023-04-25T08:12:34;2.30;;;1.20;;
37787;SDS011;23627;53.302;-6.362;2023-04-25T08:15:00;1.90;;;1.02;;
37787;SDS011;23627;53.302;-6.362;2023-04-25T08:17:26;4.63;;;1.52;;
37787;SDS011;23627;53.302;-6.362;2023-04-25T08:19:52;1.65;;;1.00;;
37787;SDS011;23627;53.302;-6.362;2023-04-25T08:22:18;2.05;;;1.10;;
37787;SDS011;23627;53.302;-6.362;2023-04-25T08:24:44;2.83;;;1.15;;
37787;SDS011;23627;53.302;-6.362;2023-04-25T08:27:09;1.33;;;0.98;;
37787;SDS011;23627;53.302;-6.362;2023-04-25T08:29:36;2.47;;;1.00;;
37787;SDS011;23627;53.302;-6.362;2023-04-25T08:32:02;2.17;;;0.90;;
37787;SDS011;23627;53.302;-6.362;2023-04-25T08:34:27;1.33;;;0.90;;
37787;SDS011;23627;53.302;-6.362;2023-04-25T08:36:53;2.40;;;1.10;;
37787;SDS011;23627;53.302;-6.362;2023-04-25T08:39:19;1.65;;;1.10;;
37787;SDS011;23627;53.302;-6.362;2023-04-25T08:41:45;2.42;;;1.00;;
37787;SDS011;23627;53.302;-6.362;2023-04-25T08:44:11;2.28;;;1.10;;
37787;SDS011;23627;53.302;-6.362;2023-04-25T08:46:40;3.28;;;0.98;;
37787;SDS011;23627;53.302;-6.362;2023-04-25T08:49:07;1.85;;;0.80;;
37787;SDS011;23627;53.302;-6.362;2023-04-25T08:51:34;3.53;;;0.98;;
37787;SDS011;23627;53.302;-6.362;2023-04-25T08:54:08;2.25;;;0.85;;
37787;SDS011;23627;53.302;-6.362;2023-04-25T08:56:37;2.78;;;0.98;;
37787;SDS011;23627;53.302;-6.362;2023-04-25T08:59:03;2.15;;;0.90;;
37787;SDS011;23627;53.302;-6.362;2023-04-25T09:01:32;1.77;;;0.85;;
37787;SDS011;23627;53.302;-6.362;2023-04-25T09:04:02;2.00;;;0.95;;
37787;SDS011;23627;53.302;-6.362;2023-04-25T09:06:31;1.52;;;0.90;;
37787;SDS011;23627;53.302;-6.362;2023-04-25T09:09:03;1.52;;;0.90;;
37787;SDS011;23627;53.302;-6.362;2023-04-25T09:11:31;0.85;;;0.70;;
37787;SDS011;23627;53.302;-6.362;2023-04-25T09:14:10;2.08;;;1.00;;
37787;SDS011;23627;53.302;-6.362;2023-04-25T09:19:29;1.05;;;0.70;;
37787;SDS011;23627;53.302;-6.362;2023-04-25T09:22:01;2.28;;;0.88;;
37787;SDS011;23627;53.302;-6.362;2023-04-25T09:24:35;1.92;;;0.80;;
37787;SDS011;23627;53.302;-6.362;2023-04-25T09:27:07;1.20;;;0.60;;
37787;SDS011;23627;53.302;-6.362;2023-04-25T09:29:38;1.95;;;0.65;;
37787;SDS011;23627;53.302;-6.362;2023-04-25T09:32:26;1.45;;;0.80;;
37787;SDS011;23627;53.302;-6.362;2023-04-25T09:34:52;2.17;;;0.70;;
37787;SDS011;23627;53.302;-6.362;2023-04-25T09:37:22;2.20;;;0.65;;
37787;SDS011;23627;53.302;-6.362;2023-04-25T09:39:50;1.40;;;0.70;;
37787;SDS011;23627;53.302;-6.362;2023-04-25T09:42:21;1.10;;;0.52;;
37787;SDS011;23627;53.302;-6.362;2023-04-25T09:44:48;3.28;;;0.82;;
37787;SDS011;23627;53.302;-6.362;2023-04-25T09:47:17;1.65;;;0.70;;
37787;SDS011;23627;53.302;-6.362;2023-04-25T09:49:46;2.22;;;0.80;;
37787;SDS011;23627;53.302;-6.362;2023-04-25T09:52:15;1.63;;;0.70;;
37787;SDS011;23627;53.302;-6.362;2023-04-25T09:54:45;2.67;;;0.80;;
37787;SDS011;23627;53.302;-6.362;2023-04-25T09:59:46;1.30;;;0.65;;
37787;SDS011;23627;53.302;-6.362;2023-04-25T10:02:17;1.23;;;0.60;;
37787;SDS011;23627;53.302;-6.362;2023-04-25T10:04:47;1.63;;;0.80;;
37787;SDS011;23627;53.302;-6.362;2023-04-25T10:07:17;1.70;;;0.68;;
37787;SDS011;23627;53.302;-6.362;2023-04-25T10:09:44;1.65;;;0.60;;
37787;SDS011;23627;53.302;-6.362;2023-04-25T10:12:14;2.47;;;0.73;;
37787;SDS011;23627;53.302;-6.362;2023-04-25T10:14:41;3.97;;;0.77;;
37787;SDS011;23627;53.302;-6.362;2023-04-25T10:17:08;1.58;;;0.70;;
37787;SDS011;23627;53.302;-6.362;2023-04-25T10:19:36;2.00;;;0.70;;
37787;SDS011;23627;53.302;-6.362;2023-04-25T10:22:13;1.95;;;0.60;;
37787;SDS011;23627;53.302;-6.362;2023-04-25T10:24:43;1.38;;;0.80;;
37787;SDS011;23627;53.302;-6.362;2023-04-25T10:27:11;1.85;;;0.77;;
37787;SDS011;23627;53.302;-6.362;2023-04-25T10:29:38;2.42;;;0.75;;
37787;SDS011;23627;53.302;-6.362;2023-04-25T10:32:08;2.35;;;0.63;;
37787;SDS011;23627;53.302;-6.362;2023-04-25T10:34:37;1.60;;;0.75;;
37787;SDS011;23627;53.302;-6.362;2023-04-25T10:37:12;1.42;;;0.70;;
37787;SDS011;23627;53.302;-6.362;2023-04-25T10:39:39;1.58;;;0.55;;
37787;SDS011;23627;53.302;-6.362;2023-04-25T10:42:06;1.30;;;0.65;;
37787;SDS011;23627;53.302;-6.362;2023-04-25T10:44:36;1.40;;;0.70;;
37787;SDS011;23627;53.302;-6.362;2023-04-25T10:47:03;1.92;;;0.90;;
37787;SDS011;23627;53.302;-6.362;2023-04-25T10:49:36;1.83;;;0.70;;
37787;SDS011;23627;53.302;-6.362;2023-04-25T10:52:17;1.95;;;0.70;;
37787;SDS011;23627;53.302;-6.362;2023-04-25T10:54:51;1.58;;;0.75;;
37787;SDS011;23627;53.302;-6.362;2023-04-25T10:57:39;2.40;;;0.80;;
37787;SDS011;23627;53.302;-6.362;2023-04-25T11:02:41;1.92;;;0.70;;
37787;SDS011;23627;53.302;-6.362;2023-04-25T11:07:54;1.88;;;0.80;;
37787;SDS011;23627;53.302;-6.362;2023-04-25T11:10:27;2.28;;;0.90;;
37787;SDS011;23627;53.302;-6.362;2023-04-25T11:12:58;1.70;;;0.63;;
37787;SDS011;23627;53.302;-6.362;2023-04-25T11:15:25;1.90;;;0.70;;
37787;SDS011;23627;53.302;-6.362;2023-04-25T11:17:54;2.22;;;0.75;;
37787;SDS011;23627;53.302;-6.362;2023-04-25T11:20:21;1.65;;;0.63;;
37787;SDS011;23627;53.302;-6.362;2023-04-25T11:22:47;2.00;;;0.60;;
37787;SDS011;23627;53.302;-6.362;2023-04-25T11:25:14;2.38;;;0.70;;
37787;SDS011;23627;53.302;-6.362;2023-04-25T11:30:22;1.77;;;0.80;;
37787;SDS011;23627;53.302;-6.362;2023-04-25T11:32:49;2.78;;;0.82;;
37787;SDS011;23627;53.302;-6.362;2023-04-25T11:35:17;0.90;;;0.60;;
37787;SDS011;23627;53.302;-6.362;2023-04-25T11:37:44;2.55;;;0.73;;
37787;SDS011;23627;53.302;-6.362;2023-04-25T11:40:10;1.52;;;0.70;;
37787;SDS011;23627;53.302;-6.362;2023-04-25T11:42:44;1.30;;;0.70;;
37787;SDS011;23627;53.302;-6.362;2023-04-25T11:45:12;2.40;;;0.80;;
37787;SDS011;23627;53.302;-6.362;2023-04-25T11:47:41;2.08;;;0.50;;
37787;SDS011;23627;53.302;-6.362;2023-04-25T11:50:07;2.25;;;0.98;;
37787;SDS011;23627;53.302;-6.362;2023-04-25T11:55:04;1.40;;;0.60;;
37787;SDS011;23627;53.302;-6.362;2023-04-25T11:57:41;3.10;;;0.90;;
37787;SDS011;23627;53.302;-6.362;2023-04-25T12:00:10;1.85;;;0.60;;
37787;SDS011;23627;53.302;-6.362;2023-04-25T12:02:51;2.47;;;0.70;;
37787;SDS011;23627;53.302;-6.362;2023-04-25T12:05:18;1.30;;;0.70;;
37787;SDS011;23627;53.302;-6.362;2023-04-25T12:07:45;1.90;;;0.70;;
37787;SDS011;23627;53.302;-6.362;2023-04-25T12:10:12;2.10;;;1.00;;
37787;SDS011;23627;53.302;-6.362;2023-04-25T12:12:43;1.70;;;0.90;;
37787;SDS011;23627;53.302;-6.362;2023-04-25T12:17:44;1.40;;;0.82;;
37787;SDS011;23627;53.302;-6.362;2023-04-25T12:20:15;2.25;;;0.88;;
37787;SDS011;23627;53.302;-6.362;2023-04-25T12:22:44;1.50;;;0.60;;
37787;SDS011;23627;53.302;-6.362;2023-04-25T12:25:59;2.30;;;0.85;;
37787;SDS011;23627;53.302;-6.362;2023-04-25T12:28:23;1.92;;;0.90;;
37787;SDS011;23627;53.302;-6.362;2023-04-25T12:31:04;2.45;;;1.00;;
37787;SDS011;23627;53.302;-6.362;2023-04-25T12:33:35;2.53;;;0.85;;
37787;SDS011;23627;53.302;-6.362;2023-04-25T12:36:02;1.85;;;0.90;;
37787;SDS011;23627;53.302;-6.362;2023-04-25T12:38:35;1.70;;;0.95;;
37787;SDS011;23627;53.302;-6.362;2023-04-25T12:41:03;2.65;;;0.80;;
37787;SDS011;23627;53.302;-6.362;2023-04-25T12:43:29;3.22;;;0.90;;
37787;SDS011;23627;53.302;-6.362;2023-04-25T12:45:55;1.67;;;0.85;;
37787;SDS011;23627;53.302;-6.362;2023-04-25T12:48:22;2.78;;;0.90;;
37787;SDS011;23627;53.302;-6.362;2023-04-25T12:50:48;3.50;;;1.00;;
37787;SDS011;23627;53.302;-6.362;2023-04-25T12:53:19;3.00;;;1.05;;
37787;SDS011;23627;53.302;-6.362;2023-04-25T12:55:45;2.00;;;1.15;;
37787;SDS011;23627;53.302;-6.362;2023-04-25T12:58:16;3.15;;;0.95;;
37787;SDS011;23627;53.302;-6.362;2023-04-25T13:00:42;2.45;;;1.05;;
37787;SDS011;23627;53.302;-6.362;2023-04-25T13:03:10;1.40;;;0.80;;
37787;SDS011;23627;53.302;-6.362;2023-04-25T13:05:37;1.50;;;0.85;;
37787;SDS011;23627;53.302;-6.362;2023-04-25T13:08:04;1.83;;;0.80;;
37787;SDS011;23627;53.302;-6.362;2023-04-25T13:10:30;2.70;;;1.00;;
37787;SDS011;23627;53.302;-6.362;2023-04-25T13:12:56;3.13;;;1.00;;
37787;SDS011;23627;53.302;-6.362;2023-04-25T13:15:22;2.42;;;1.10;;
37787;SDS011;23627;53.302;-6.362;2023-04-25T13:17:48;2.67;;;0.93;;
37787;SDS011;23627;53.302;-6.362;2023-04-25T13:20:14;2.60;;;1.17;;
37787;SDS011;23627;53.302;-6.362;2023-04-25T13:22:41;3.78;;;1.08;;
37787;SDS011;23627;53.302;-6.362;2023-04-25T13:25:08;2.63;;;1.13;;
37787;SDS011;23627;53.302;-6.362;2023-04-25T13:27:34;2.67;;;1.10;;
37787;SDS011;23627;53.302;-6.362;2023-04-25T13:30:01;2.45;;;1.10;;
37787;SDS011;23627;53.302;-6.362;2023-04-25T13:32:32;3.13;;;1.15;;
37787;SDS011;23627;53.302;-6.362;2023-04-25T13:35:00;2.45;;;1.38;;
37787;SDS011;23627;53.302;-6.362;2023-04-25T13:37:27;2.00;;;1.00;;
37787;SDS011;23627;53.302;-6.362;2023-04-25T13:39:54;3.65;;;1.10;;
37787;SDS011;23627;53.302;-6.362;2023-04-25T13:42:21;3.72;;;1.40;;
37787;SDS011;23627;53.302;-6.362;2023-04-25T13:44:48;2.75;;;1.20;;
37787;SDS011;23627;53.302;-6.362;2023-04-25T13:47:13;3.72;;;1.13;;
37787;SDS011;23627;53.302;-6.362;2023-04-25T13:49:39;2.72;;;1.20;;
37787;SDS011;23627;53.302;-6.362;2023-04-25T13:52:05;2.85;;;1.30;;
37787;SDS011;23627;53.302;-6.362;2023-04-25T13:54:31;3.08;;;1.30;;
37787;SDS011;23627;53.302;-6.362;2023-04-25T13:56:57;3.83;;;1.33;;
37787;SDS011;23627;53.302;-6.362;2023-04-25T13:59:24;3.70;;;1.48;;
37787;SDS011;23627;53.302;-6.362;2023-04-25T14:01:51;2.78;;;1.25;;
37787;SDS011;23627;53.302;-6.362;2023-04-25T14:04:16;2.92;;;1.40;;
37787;SDS011;23627;53.302;-6.362;2023-04-25T14:06:42;4.18;;;1.75;;
37787;SDS011;23627;53.302;-6.362;2023-04-25T14:09:08;3.58;;;1.10;;
37787;SDS011;23627;53.302;-6.362;2023-04-25T14:11:36;3.67;;;1.40;;
37787;SDS011;23627;53.302;-6.362;2023-04-25T14:14:02;4.10;;;1.25;;
37787;SDS011;23627;53.302;-6.362;2023-04-25T14:16:28;3.85;;;1.40;;
37787;SDS011;23627;53.302;-6.362;2023-04-25T14:18:55;3.67;;;1.40;;
37787;SDS011;23627;53.302;-6.362;2023-04-25T14:21:21;2.90;;;1.08;;
37787;SDS011;23627;53.302;-6.362;2023-04-25T14:23:47;3.95;;;1.70;;
37787;SDS011;23627;53.302;-6.362;2023-04-25T14:26:12;4.85;;;1.55;;
37787;SDS011;23627;53.302;-6.362;2023-04-25T14:28:38;4.15;;;1.35;;
37787;SDS011;23627;53.302;-6.362;2023-04-25T14:31:04;5.47;;;1.60;;
37787;SDS011;23627;53.302;-6.362;2023-04-25T14:33:31;4.15;;;1.65;;
37787;SDS011;23627;53.302;-6.362;2023-04-25T14:35:57;3.30;;;1.33;;
37787;SDS011;23627;53.302;-6.362;2023-04-25T14:38:23;4.80;;;1.65;;
37787;SDS011;23627;53.302;-6.362;2023-04-25T14:40:50;2.72;;;1.40;;
37787;SDS011;23627;53.302;-6.362;2023-04-25T14:43:16;3.70;;;1.42;;
37787;SDS011;23627;53.302;-6.362;2023-04-25T14:45:42;3.95;;;1.30;;
37787;SDS011;23627;53.302;-6.362;2023-04-25T14:48:07;4.32;;;1.60;;
37787;SDS011;23627;53.302;-6.362;2023-04-25T14:50:33;4.50;;;1.60;;
37787;SDS011;23627;53.302;-6.362;2023-04-25T14:52:59;4.10;;;1.70;;
37787;SDS011;23627;53.302;-6.362;2023-04-25T14:55:28;4.03;;;1.48;;